M0CJS Weather Reports


Display with metric or nautical units.
time (UTC)temp
F
wind
direction
speed
MPH
gust
MPH
rain 1hr
in
rain 24hr
in
rain mn
in
humidity
%
barometer
mb
20200531161016 74 0.0 0.0 0.00 0.00 0.00 43 1021.7
20200531154017 74 0.0 0.0 0.00 0.00 0.00 43 1021.9
20200531142017 75 0.0 0.0 0.00 0.00 0.00 41 1022.0
20200531140017 75 0.0 0.0 0.00 0.00 0.00 41 1022.2
20200531135016 76 0.0 0.0 0.00 0.00 0.00 41 1022.2
20200531134016 77 0.0 0.0 0.00 0.00 0.00 40 1022.4
20200531130016 76 0.0 0.0 0.00 0.00 0.00 43 1022.5
20200531122016 75 0.0 0.0 0.00 0.00 0.00 45 1022.7
20200531120016 74 0.0 0.0 0.00 0.00 0.00 46 1022.8
20200531114016 74 0.0 0.0 0.00 0.00 0.00 49 1022.8
20200531112016 73 0.0 0.0 0.00 0.00 0.00 53 1022.9
20200531104016 71 0.0 0.0 0.00 0.00 0.00 62 1023.0
20200531103016 70 0.0 0.0 0.00 0.00 0.00 62 1023.0
20200531100016 69 0.0 0.0 0.00 0.00 0.00 65 1023.1
20200531094016 69 0.0 0.0 0.00 0.00 0.00 66 1023.2
20200531090016 67 0.0 0.0 0.00 0.00 0.00 72 1023.2
20200531070016 58 0.0 0.0 0.00 0.00 0.00 81 1023.2
20200531064016 57 0.0 0.0 0.00 0.00 0.00 81 1023.1
20200531063016 56 0.0 0.0 0.00 0.00 0.00 82 1023.0
20200531060017 55 0.0 0.0 0.00 0.00 0.00 84 1023.1
20200531050016 51 0.0 0.0 0.00 0.00 0.00 91 1022.9
20200531043016 50 0.0 0.0 0.00 0.00 0.00 90 1022.7
20200531040016 50 0.0 0.0 0.00 0.00 0.00 87 1022.5
20200531033016 50 0.0 0.0 0.00 0.00 0.00 87 1022.7
20200531032016 50 0.0 0.0 0.00 0.00 0.00 86 1022.8
20200531024016 50 0.0 0.0 0.00 0.00 0.00 88 1022.9
20200531023016 50 0.0 0.0 0.00 0.00 0.00 89 1022.9
20200531022016 51 0.0 0.0 0.00 0.00 0.00 90 1023.1
20200531015016 51 0.0 0.0 0.00 0.00 0.00 90 1023.3
20200531013016 51 0.0 0.0 0.00 0.00 0.00 89 1023.3
20200531011016 52 0.0 0.0 0.00 0.00 0.00 87 1023.4
20200531010016 53 0.0 0.0 0.00 0.00 0.00 87 1023.3
20200531002016 54 0.0 0.0 0.00 0.00 0.00 81 1023.5
20200531001019 55 0.0 0.0 0.00 0.00 0.00 80 1023.5
20200530235016 55 0.0 0.0 0.00 0.00 0.00 78 1023.5
20200530225015 58 0.0 0.0 0.00 0.00 0.00 71 1023.3
20200530222015 58 0.0 0.0 0.00 0.00 0.00 71
20200530221015 59 0.0 0.0 0.00 0.00 0.00 71
20200530215015 59 0.0 0.0 0.00 0.00 0.00 70 1022.8
20200530212015 61 0.0 0.0 0.00 0.00 0.00 68 1022.7
20200530210015 62 0.0 0.0 0.00 0.00 0.00 66 1022.5
20200530200017 65 0.0 0.0 0.00 0.00 0.00 59 1021.8
20200530193017 67 0.0 0.0 0.00 0.00 0.00 57 1021.3
20200530191017 68 0.0 0.0 0.00 0.00 0.00 55 1021.2
20200530173018 73 0.0 0.0 0.00 0.00 0.00 48 1021.0
20200530171017 74 0.0 0.0 0.00 0.00 0.00 49 1020.9
20200530170017 74 0.0 0.0 0.00 0.00 0.00 48 1021.0